WAOO

Banjarmasin/Syamsudin Noor Airport

Airport
ICAO code
WAOO
IATA Code
BDJ
Summary
ICAO Region
APAC
ICAO Territory
Location

Banjarbaru, Kalimantan Selatan

Serving
Banjarmasin
Elevation
66 ft
Coordinates
3° 26' 32" S , 114° 45' 45" E
Metar
WAOO 202100Z AUTO 07006KT 9999 VCTS SCT040 OVC055 27/25 Q1009

Airport map

Aerial View

SKYbrary Partners:

Safety knowledge contributed by: